sensor_id;sensor_type;location;lat;lon;timestamp;pressure;altitude;pressure_sealevel;temperature;humidity
64687;BME280;51113;53.646;-113.674;2024-02-28T00:00:15;93736.78;;;-18.87;74.62
64687;BME280;51113;53.646;-113.674;2024-02-28T00:02:44;93732.88;;;-18.91;75.87
64687;BME280;51113;53.646;-113.674;2024-02-28T00:05:12;93731.53;;;-18.97;74.92
64687;BME280;51113;53.646;-113.674;2024-02-28T00:07:41;93725.06;;;-19.00;75.74
64687;BME280;51113;53.646;-113.674;2024-02-28T00:10:09;93724.19;;;-18.99;76.67
64687;BME280;51113;53.646;-113.674;2024-02-28T00:12:38;93720.78;;;-19.12;75.79
64687;BME280;51113;53.646;-113.674;2024-02-28T00:15:07;93712.44;;;-19.25;76.58
64687;BME280;51113;53.646;-113.674;2024-02-28T00:17:39;93720.97;;;-19.15;76.04
64687;BME280;51113;53.646;-113.674;2024-02-28T00:20:11;93715.00;;;-19.26;76.96
64687;BME280;51113;53.646;-113.674;2024-02-28T00:22:41;93708.31;;;-19.40;76.58
64687;BME280;51113;53.646;-113.674;2024-02-28T00:25:11;93712.72;;;-19.45;76.64
64687;BME280;51113;53.646;-113.674;2024-02-28T00:27:40;93709.25;;;-19.57;76.33
64687;BME280;51113;53.646;-113.674;2024-02-28T00:30:09;93710.03;;;-19.56;76.26
64687;BME280;51113;53.646;-113.674;2024-02-28T00:32:38;93710.03;;;-19.56;76.40
64687;BME280;51113;53.646;-113.674;2024-02-28T00:35:07;93703.19;;;-19.67;76.11
64687;BME280;51113;53.646;-113.674;2024-02-28T00:37:36;93706.63;;;-19.70;75.74
64687;BME280;51113;53.646;-113.674;2024-02-28T00:40:04;93701.22;;;-19.76;76.03
64687;BME280;51113;53.646;-113.674;2024-02-28T00:42:33;93691.72;;;-19.84;76.15
64687;BME280;51113;53.646;-113.674;2024-02-28T00:45:02;93704.25;;;-19.87;75.84
64687;BME280;51113;53.646;-113.674;2024-02-28T00:47:30;93697.47;;;-19.99;76.57
64687;BME280;51113;53.646;-113.674;2024-02-28T00:50:00;93690.59;;;-20.10;76.05
64687;BME280;51113;53.646;-113.674;2024-02-28T00:52:31;93707.50;;;-20.02;75.66
64687;BME280;51113;53.646;-113.674;2024-02-28T00:55:00;93702.22;;;-20.12;75.81
64687;BME280;51113;53.646;-113.674;2024-02-28T00:57:29;93701.41;;;-20.28;74.85
64687;BME280;51113;53.646;-113.674;2024-02-28T00:59:57;93689.31;;;-20.33;74.70
64687;BME280;51113;53.646;-113.674;2024-02-28T01:02:26;93684.38;;;-20.33;75.59
64687;BME280;51113;53.646;-113.674;2024-02-28T01:04:54;93695.53;;;-20.41;75.93
64687;BME280;51113;53.646;-113.674;2024-02-28T01:07:23;93692.16;;;-20.56;75.07
64687;BME280;51113;53.646;-113.674;2024-02-28T01:09:52;93684.97;;;-20.60;75.86
64687;BME280;51113;53.646;-113.674;2024-02-28T01:12:20;93676.00;;;-20.79;76.06
64687;BME280;51113;53.646;-113.674;2024-02-28T01:14:49;93684.72;;;-20.72;76.38
64687;BME280;51113;53.646;-113.674;2024-02-28T01:17:18;93689.28;;;-20.81;76.01
64687;BME280;51113;53.646;-113.674;2024-02-28T01:19:46;93685.22;;;-20.82;77.04
64687;BME280;51113;53.646;-113.674;2024-02-28T01:22:14;93676.59;;;-20.91;76.69
64687;BME280;51113;53.646;-113.674;2024-02-28T01:24:43;93677.06;;;-21.00;77.16
64687;BME280;51113;53.646;-113.674;2024-02-28T01:27:12;93672.84;;;-21.15;77.05
64687;BME280;51113;53.646;-113.674;2024-02-28T01:29:40;93656.00;;;-21.23;77.98
64687;BME280;51113;53.646;-113.674;2024-02-28T01:32:09;93653.31;;;-21.36;77.76
64687;BME280;51113;53.646;-113.674;2024-02-28T01:34:38;93656.28;;;-21.46;78.24
64687;BME280;51113;53.646;-113.674;2024-02-28T01:37:06;93646.72;;;-21.35;79.38
64687;BME280;51113;53.646;-113.674;2024-02-28T01:39:35;93645.06;;;-21.52;78.60
64687;BME280;51113;53.646;-113.674;2024-02-28T01:42:04;93633.97;;;-21.60;79.17
64687;BME280;51113;53.646;-113.674;2024-02-28T01:44:38;93616.38;;;-21.53;80.15
64687;BME280;51113;53.646;-113.674;2024-02-28T01:47:11;93638.47;;;-21.51;78.43
64687;BME280;51113;53.646;-113.674;2024-02-28T01:49:40;93639.84;;;-21.63;78.72
64687;BME280;51113;53.646;-113.674;2024-02-28T01:52:10;93630.09;;;-21.83;78.44
64687;BME280;51113;53.646;-113.674;2024-02-28T01:54:41;93627.00;;;-22.04;78.42
64687;BME280;51113;53.646;-113.674;2024-02-28T01:57:11;93631.53;;;-22.14;78.97
64687;BME280;51113;53.646;-113.674;2024-02-28T01:59:40;93625.81;;;-22.14;79.80
64687;BME280;51113;53.646;-113.674;2024-02-28T02:02:10;93631.13;;;-22.23;79.93
64687;BME280;51113;53.646;-113.674;2024-02-28T02:04:38;93632.41;;;-22.34;80.10
64687;BME280;51113;53.646;-113.674;2024-02-28T02:07:07;93622.56;;;-22.15;80.90
64687;BME280;51113;53.646;-113.674;2024-02-28T02:09:36;93617.72;;;-21.99;80.72
64687;BME280;51113;53.646;-113.674;2024-02-28T02:12:05;93614.44;;;-22.00;80.23
64687;BME280;51113;53.646;-113.674;2024-02-28T02:14:33;93608.53;;;-22.13;79.27
64687;BME280;51113;53.646;-113.674;2024-02-28T02:17:02;93606.94;;;-22.14;79.32
64687;BME280;51113;53.646;-113.674;2024-02-28T02:19:30;93606.50;;;-22.05;79.82
64687;BME280;51113;53.646;-113.674;2024-02-28T02:22:00;93610.25;;;-22.15;79.19
64687;BME280;51113;53.646;-113.674;2024-02-28T02:24:32;93588.59;;;-22.25;79.48
64687;BME280;51113;53.646;-113.674;2024-02-28T02:27:01;93588.47;;;-22.41;79.35
64687;BME280;51113;53.646;-113.674;2024-02-28T02:29:30;93584.38;;;-22.41;79.54
64687;BME280;51113;53.646;-113.674;2024-02-28T02:31:59;93575.44;;;-22.24;80.30
64687;BME280;51113;53.646;-113.674;2024-02-28T02:34:28;93566.34;;;-22.05;81.04
64687;BME280;51113;53.646;-113.674;2024-02-28T02:36:56;93572.19;;;-21.90;81.11
64687;BME280;51113;53.646;-113.674;2024-02-28T02:39:25;93568.56;;;-22.01;80.29
64687;BME280;51113;53.646;-113.674;2024-02-28T02:41:54;93551.94;;;-21.96;80.71
64687;BME280;51113;53.646;-113.674;2024-02-28T02:44:22;93555.47;;;-21.84;80.63
64687;BME280;51113;53.646;-113.674;2024-02-28T02:46:51;93548.38;;;-21.90;80.14
64687;BME280;51113;53.646;-113.674;2024-02-28T02:49:20;93542.88;;;-21.95;80.42
64687;BME280;51113;53.646;-113.674;2024-02-28T02:51:48;93547.94;;;-21.98;80.43
64687;BME280;51113;53.646;-113.674;2024-02-28T02:54:17;93547.59;;;-21.90;80.37
64687;BME280;51113;53.646;-113.674;2024-02-28T02:56:46;93534.88;;;-22.16;80.29
64687;BME280;51113;53.646;-113.674;2024-02-28T02:59:14;93536.16;;;-22.09;81.41
64687;BME280;51113;53.646;-113.674;2024-02-28T03:01:43;93543.31;;;-21.87;82.08
64687;BME280;51113;53.646;-113.674;2024-02-28T03:04:11;93540.19;;;-21.90;80.88
64687;BME280;51113;53.646;-113.674;2024-02-28T03:06:40;93535.50;;;-21.95;81.25
64687;BME280;51113;53.646;-113.674;2024-02-28T03:09:08;93525.88;;;-22.00;81.31
64687;BME280;51113;53.646;-113.674;2024-02-28T03:11:37;93532.25;;;-21.78;81.61
64687;BME280;51113;53.646;-113.674;2024-02-28T03:14:06;93527.97;;;-21.92;81.04
64687;BME280;51113;53.646;-113.674;2024-02-28T03:16:34;93524.84;;;-21.96;81.09
64687;BME280;51113;53.646;-113.674;2024-02-28T03:19:05;93538.91;;;-21.98;80.96
64687;BME280;51113;53.646;-113.674;2024-02-28T03:21:34;93535.44;;;-21.93;81.35
64687;BME280;51113;53.646;-113.674;2024-02-28T03:24:03;93524.09;;;-22.13;80.68
64687;BME280;51113;53.646;-113.674;2024-02-28T03:26:31;93519.03;;;-22.10;81.21
64687;BME280;51113;53.646;-113.674;2024-02-28T03:29:00;93524.06;;;-21.96;81.22
64687;BME280;51113;53.646;-113.674;2024-02-28T03:31:29;93519.22;;;-21.98;81.08
64687;BME280;51113;53.646;-113.674;2024-02-28T03:33:57;93523.25;;;-21.97;80.57
64687;BME280;51113;53.646;-113.674;2024-02-28T03:36:28;93530.16;;;-22.03;80.44
64687;BME280;51113;53.646;-113.674;2024-02-28T03:38:56;93514.44;;;-22.01;80.17
64687;BME280;51113;53.646;-113.674;2024-02-28T03:41:24;93519.22;;;-21.98;79.84
64687;BME280;51113;53.646;-113.674;2024-02-28T03:43:53;93509.84;;;-22.07;79.50
64687;BME280;51113;53.646;-113.674;2024-02-28T03:46:22;93497.81;;;-22.13;79.54
64687;BME280;51113;53.646;-113.674;2024-02-28T03:48:50;93490.59;;;-22.16;79.99
64687;BME280;51113;53.646;-113.674;2024-02-28T03:51:19;93489.50;;;-22.10;80.24
64687;BME280;51113;53.646;-113.674;2024-02-28T03:53:48;93483.63;;;-22.08;80.66
64687;BME280;51113;53.646;-113.674;2024-02-28T03:56:26;93483.94;;;-22.14;80.22
64687;BME280;51113;53.646;-113.674;2024-02-28T03:58:55;93471.75;;;-22.00;80.67
64687;BME280;51113;53.646;-113.674;2024-02-28T04:01:24;93455.22;;;-22.13;80.31
64687;BME280;51113;53.646;-113.674;2024-02-28T04:03:53;93447.03;;;-22.14;80.58
64687;BME280;51113;53.646;-113.674;2024-02-28T04:06:22;93462.69;;;-21.99;80.55
64687;BME280;51113;53.646;-113.674;2024-02-28T04:08:50;93451.97;;;-21.98;80.47
64687;BME280;51113;53.646;-113.674;2024-02-28T04:11:19;93452.09;;;-21.84;81.62
64687;BME280;51113;53.646;-113.674;2024-02-28T04:13:48;93445.50;;;-21.66;82.27
64687;BME280;51113;53.646;-113.674;2024-02-28T04:16:17;93442.66;;;-21.58;82.79
64687;BME280;51113;53.646;-113.674;2024-02-28T04:18:45;93413.19;;;-21.60;82.25
64687;BME280;51113;53.646;-113.674;2024-02-28T04:21:14;93408.59;;;-21.50;81.44
64687;BME280;51113;53.646;-113.674;2024-02-28T04:23:43;93404.69;;;-21.54;81.31
64687;BME280;51113;53.646;-113.674;2024-02-28T04:26:12;93384.91;;;-21.37;83.30
64687;BME280;51113;53.646;-113.674;2024-02-28T04:28:42;93379.03;;;-21.50;82.07
64687;BME280;51113;53.646;-113.674;2024-02-28T04:31:11;93382.63;;;-21.40;82.59
64687;BME280;51113;53.646;-113.674;2024-02-28T04:33:39;93366.88;;;-21.53;82.14
64687;BME280;51113;53.646;-113.674;2024-02-28T04:36:08;93357.09;;;-21.39;82.91
64687;BME280;51113;53.646;-113.674;2024-02-28T04:38:37;93361.88;;;-21.36;81.67
64687;BME280;51113;53.646;-113.674;2024-02-28T04:41:05;93354.66;;;-21.39;82.52
64687;BME280;51113;53.646;-113.674;2024-02-28T04:43:34;93349.56;;;-21.36;82.06
64687;BME280;51113;53.646;-113.674;2024-02-28T04:46:02;93334.38;;;-21.44;81.49
64687;BME280;51113;53.646;-113.674;2024-02-28T04:48:31;93326.94;;;-21.58;81.51
64687;BME280;51113;53.646;-113.674;2024-02-28T04:51:00;93340.50;;;-21.51;82.08
64687;BME280;51113;53.646;-113.674;2024-02-28T04:53:30;93360.28;;;-21.69;81.01
64687;BME280;51113;53.646;-113.674;2024-02-28T04:55:59;93338.56;;;-21.93;81.42
64687;BME280;51113;53.646;-113.674;2024-02-28T04:58:28;93385.59;;;-21.82;81.40
64687;BME280;51113;53.646;-113.674;2024-02-28T05:00:57;93392.16;;;-21.83;81.26
64687;BME280;51113;53.646;-113.674;2024-02-28T05:03:25;93369.63;;;-21.75;81.68
64687;BME280;51113;53.646;-113.674;2024-02-28T05:05:54;93343.75;;;-21.82;81.58
64687;BME280;51113;53.646;-113.674;2024-02-28T05:08:24;93351.75;;;-21.79;81.37
64687;BME280;51113;53.646;-113.674;2024-02-28T05:10:52;93351.44;;;-21.88;80.72
64687;BME280;51113;53.646;-113.674;2024-02-28T05:13:21;93352.22;;;-21.88;81.32
64687;BME280;51113;53.646;-113.674;2024-02-28T05:15:51;93341.28;;;-21.82;81.46
64687;BME280;51113;53.646;-113.674;2024-02-28T05:18:19;93334.63;;;-21.80;81.74
64687;BME280;51113;53.646;-113.674;2024-02-28T05:20:48;93330.66;;;-21.83;81.31
64687;BME280;51113;53.646;-113.674;2024-02-28T05:23:17;93331.59;;;-21.85;80.66
64687;BME280;51113;53.646;-113.674;2024-02-28T05:25:46;93324.94;;;-21.83;81.38
64687;BME280;51113;53.646;-113.674;2024-02-28T05:28:15;93309.75;;;-21.91;81.08
64687;BME280;51113;53.646;-113.674;2024-02-28T05:30:44;93321.19;;;-21.75;81.58
64687;BME280;51113;53.646;-113.674;2024-02-28T05:33:16;93303.88;;;-21.73;80.94
64687;BME280;51113;53.646;-113.674;2024-02-28T05:35:46;93307.22;;;-21.58;80.72
64687;BME280;51113;53.646;-113.674;2024-02-28T05:38:14;93309.28;;;-21.67;80.53
64687;BME280;51113;53.646;-113.674;2024-02-28T05:40:43;93304.28;;;-21.49;81.73
64687;BME280;51113;53.646;-113.674;2024-02-28T05:43:12;93300.56;;;-21.56;80.59
64687;BME280;51113;53.646;-113.674;2024-02-28T05:45:41;93294.03;;;-21.57;80.28
64687;BME280;51113;53.646;-113.674;2024-02-28T05:48:09;93302.47;;;-21.62;79.98
64687;BME280;51113;53.646;-113.674;2024-02-28T05:50:39;93282.69;;;-21.60;80.47
64687;BME280;51113;53.646;-113.674;2024-02-28T05:53:07;93285.06;;;-21.58;80.15
64687;BME280;51113;53.646;-113.674;2024-02-28T05:55:36;93275.38;;;-21.46;80.63
64687;BME280;51113;53.646;-113.674;2024-02-28T05:58:05;93267.19;;;-21.46;80.17
64687;BME280;51113;53.646;-113.674;2024-02-28T06:00:34;93255.66;;;-21.46;80.66
64687;BME280;51113;53.646;-113.674;2024-02-28T06:03:03;93246.78;;;-21.48;80.46
64687;BME280;51113;53.646;-113.674;2024-02-28T06:05:32;93218.19;;;-21.51;80.42
64687;BME280;51113;53.646;-113.674;2024-02-28T06:08:00;93221.81;;;-21.42;79.87
64687;BME280;51113;53.646;-113.674;2024-02-28T06:10:29;93216.97;;;-21.44;80.30
64687;BME280;51113;53.646;-113.674;2024-02-28T06:12:57;93216.44;;;-21.49;79.82
64687;BME280;51113;53.646;-113.674;2024-02-28T06:15:27;93220.56;;;-21.49;79.65
64687;BME280;51113;53.646;-113.674;2024-02-28T06:17:58;93209.59;;;-21.44;79.64
64687;BME280;51113;53.646;-113.674;2024-02-28T06:20:28;93216.84;;;-21.26;81.04
64687;BME280;51113;53.646;-113.674;2024-02-28T06:22:57;93208.72;;;-21.43;79.75
64687;BME280;51113;53.646;-113.674;2024-02-28T06:25:33;93212.28;;;-21.48;79.35
64687;BME280;51113;53.646;-113.674;2024-02-28T06:28:02;93214.94;;;-21.51;79.91
64687;BME280;51113;53.646;-113.674;2024-02-28T06:30:33;93205.06;;;-21.51;79.38
64687;BME280;51113;53.646;-113.674;2024-02-28T06:33:02;93203.94;;;-21.46;80.18
64687;BME280;51113;53.646;-113.674;2024-02-28T06:35:32;93192.94;;;-21.54;79.63
64687;BME280;51113;53.646;-113.674;2024-02-28T06:38:01;93183.50;;;-21.62;80.17
64687;BME280;51113;53.646;-113.674;2024-02-28T06:40:30;93183.63;;;-21.49;79.59
64687;BME280;51113;53.646;-113.674;2024-02-28T06:43:00;93178.75;;;-21.35;80.75
64687;BME280;51113;53.646;-113.674;2024-02-28T06:45:28;93173.41;;;-21.57;79.39
64687;BME280;51113;53.646;-113.674;2024-02-28T06:47:58;93153.66;;;-21.42;81.30
64687;BME280;51113;53.646;-113.674;2024-02-28T06:50:26;93159.19;;;-21.38;81.19
64687;BME280;51113;53.646;-113.674;2024-02-28T06:52:55;93156.91;;;-21.41;80.20
64687;BME280;51113;53.646;-113.674;2024-02-28T06:55:23;93157.44;;;-21.36;80.83
64687;BME280;51113;53.646;-113.674;2024-02-28T06:57:53;93152.53;;;-21.36;80.26
64687;BME280;51113;53.646;-113.674;2024-02-28T07:00:21;93149.19;;;-21.35;80.76
64687;BME280;51113;53.646;-113.674;2024-02-28T07:02:50;93140.41;;;-21.25;80.86
64687;BME280;51113;53.646;-113.674;2024-02-28T07:05:19;93087.59;;;-21.49;80.59
64687;BME280;51113;53.646;-113.674;2024-02-28T07:07:48;93108.72;;;-21.31;80.42
64687;BME280;51113;53.646;-113.674;2024-02-28T07:10:17;93125.59;;;-21.11;80.80
64687;BME280;51113;53.646;-113.674;2024-02-28T07:12:44;93125.88;;;-21.15;79.68
64687;BME280;51113;53.646;-113.674;2024-02-28T07:15:13;93136.44;;;-20.99;80.95
64687;BME280;51113;53.646;-113.674;2024-02-28T07:17:42;93113.53;;;-21.01;80.69
64687;BME280;51113;53.646;-113.674;2024-02-28T07:20:11;93118.47;;;-21.01;80.62
64687;BME280;51113;53.646;-113.674;2024-02-28T07:22:42;93125.97;;;-21.03;80.46
64687;BME280;51113;53.646;-113.674;2024-02-28T07:25:11;93119.53;;;-21.05;80.51
64687;BME280;51113;53.646;-113.674;2024-02-28T07:27:40;93106.63;;;-21.23;79.31
64687;BME280;51113;53.646;-113.674;2024-02-28T07:30:09;93109.06;;;-21.09;79.91
64687;BME280;51113;53.646;-113.674;2024-02-28T07:32:38;93095.34;;;-21.13;79.66
64687;BME280;51113;53.646;-113.674;2024-02-28T07:35:07;93089.34;;;-21.09;79.63
64687;BME280;51113;53.646;-113.674;2024-02-28T07:37:36;93083.81;;;-21.12;79.93
64687;BME280;51113;53.646;-113.674;2024-02-28T07:40:06;93094.63;;;-21.15;80.08
64687;BME280;51113;53.646;-113.674;2024-02-28T07:42:36;93083.72;;;-21.11;80.23
64687;BME280;51113;53.646;-113.674;2024-02-28T07:45:05;93084.63;;;-21.26;79.14
64687;BME280;51113;53.646;-113.674;2024-02-28T07:47:37;93044.41;;;-21.55;80.06
64687;BME280;51113;53.646;-113.674;2024-02-28T07:50:06;93070.97;;;-21.32;80.14
64687;BME280;51113;53.646;-113.674;2024-02-28T07:52:35;93071.69;;;-21.30;80.02
64687;BME280;51113;53.646;-113.674;2024-02-28T07:55:05;93070.81;;;-21.28;79.97
64687;BME280;51113;53.646;-113.674;2024-02-28T07:57:34;93067.72;;;-21.32;79.97
64687;BME280;51113;53.646;-113.674;2024-02-28T08:00:03;93055.59;;;-21.35;80.36
64687;BME280;51113;53.646;-113.674;2024-02-28T08:02:32;93050.31;;;-21.29;80.06
64687;BME280;51113;53.646;-113.674;2024-02-28T08:05:01;93039.31;;;-21.38;80.42
64687;BME280;51113;53.646;-113.674;2024-02-28T08:07:30;93050.50;;;-21.32;80.30
64687;BME280;51113;53.646;-113.674;2024-02-28T08:09:59;93042.91;;;-21.29;80.40
64687;BME280;51113;53.646;-113.674;2024-02-28T08:12:28;93039.81;;;-21.18;80.93
64687;BME280;51113;53.646;-113.674;2024-02-28T08:14:56;93038.84;;;-21.16;80.11
64687;BME280;51113;53.646;-113.674;2024-02-28T08:17:25;93031.44;;;-21.16;80.77
64687;BME280;51113;53.646;-113.674;2024-02-28T08:19:54;93027.56;;;-21.06;81.05
64687;BME280;51113;53.646;-113.674;2024-02-28T08:22:23;93015.59;;;-20.98;80.82
64687;BME280;51113;53.646;-113.674;2024-02-28T08:24:53;93004.69;;;-21.08;80.37
64687;BME280;51113;53.646;-113.674;2024-02-28T08:27:22;93020.88;;;-21.04;80.42
64687;BME280;51113;53.646;-113.674;2024-02-28T08:29:51;93015.19;;;-21.18;80.04
64687;BME280;51113;53.646;-113.674;2024-02-28T08:32:20;92993.25;;;-21.09;80.58
64687;BME280;51113;53.646;-113.674;2024-02-28T08:34:48;92997.84;;;-21.17;80.08
64687;BME280;51113;53.646;-113.674;2024-02-28T08:37:17;92999.75;;;-21.08;80.41
64687;BME280;51113;53.646;-113.674;2024-02-28T08:39:46;92978.66;;;-21.12;80.63
64687;BME280;51113;53.646;-113.674;2024-02-28T08:42:14;92974.41;;;-21.10;80.19
64687;BME280;51113;53.646;-113.674;2024-02-28T08:44:43;92971.81;;;-21.21;80.38
64687;BME280;51113;53.646;-113.674;2024-02-28T08:47:12;92976.09;;;-21.10;80.44
64687;BME280;51113;53.646;-113.674;2024-02-28T08:49:40;92970.72;;;-21.03;81.31
64687;BME280;51113;53.646;-113.674;2024-02-28T08:52:09;92958.72;;;-20.94;81.95
64687;BME280;51113;53.646;-113.674;2024-02-28T08:54:38;92942.72;;;-21.02;81.07
64687;BME280;51113;53.646;-113.674;2024-02-28T08:57:07;92929.84;;;-20.92;81.83
64687;BME280;51113;53.646;-113.674;2024-02-28T08:59:36;92925.00;;;-20.94;81.58
64687;BME280;51113;53.646;-113.674;2024-02-28T09:02:05;92929.44;;;-20.99;80.98
64687;BME280;51113;53.646;-113.674;2024-02-28T09:04:34;92935.16;;;-20.99;81.25
64687;BME280;51113;53.646;-113.674;2024-02-28T09:07:03;92937.16;;;-20.91;81.22
64687;BME280;51113;53.646;-113.674;2024-02-28T09:09:31;92950.16;;;-20.89;81.98
64687;BME280;51113;53.646;-113.674;2024-02-28T09:12:04;92954.69;;;-20.96;81.60
64687;BME280;51113;53.646;-113.674;2024-02-28T09:14:33;92943.94;;;-20.94;82.13
64687;BME280;51113;53.646;-113.674;2024-02-28T09:17:02;92936.50;;;-20.80;82.12
64687;BME280;51113;53.646;-113.674;2024-02-28T09:19:33;92919.34;;;-20.82;81.90
64687;BME280;51113;53.646;-113.674;2024-02-28T09:22:02;92913.56;;;-20.68;82.25
64687;BME280;51113;53.646;-113.674;2024-02-28T09:24:31;92903.00;;;-20.70;82.07
64687;BME280;51113;53.646;-113.674;2024-02-28T09:27:00;92917.28;;;-20.75;81.62
64687;BME280;51113;53.646;-113.674;2024-02-28T09:29:29;92901.66;;;-20.88;81.64
64687;BME280;51113;53.646;-113.674;2024-02-28T09:31:58;92897.94;;;-20.81;82.16
64687;BME280;51113;53.646;-113.674;2024-02-28T09:34:27;92898.56;;;-21.05;81.17
64687;BME280;51113;53.646;-113.674;2024-02-28T09:36:55;92888.69;;;-21.05;81.78
64687;BME280;51113;53.646;-113.674;2024-02-28T09:39:24;92908.53;;;-20.93;82.83
64687;BME280;51113;53.646;-113.674;2024-02-28T09:41:54;92903.38;;;-21.03;82.35
64687;BME280;51113;53.646;-113.674;2024-02-28T09:44:23;92878.53;;;-21.13;82.88
64687;BME280;51113;53.646;-113.674;2024-02-28T09:46:52;92874.88;;;-20.80;83.14
64687;BME280;51113;53.646;-113.674;2024-02-28T09:49:22;92874.25;;;-20.84;82.70
64687;BME280;51113;53.646;-113.674;2024-02-28T09:51:56;92881.56;;;-20.82;82.45
64687;BME280;51113;53.646;-113.674;2024-02-28T09:54:25;92886.50;;;-20.82;81.28
64687;BME280;51113;53.646;-113.674;2024-02-28T09:56:55;92891.53;;;-20.84;81.89
64687;BME280;51113;53.646;-113.674;2024-02-28T09:59:24;92880.09;;;-21.12;81.48
64687;BME280;51113;53.646;-113.674;2024-02-28T10:02:10;92884.75;;;-21.07;82.54
64687;BME280;51113;53.646;-113.674;2024-02-28T10:04:40;92874.28;;;-21.11;81.57
64687;BME280;51113;53.646;-113.674;2024-02-28T10:07:12;92864.56;;;-21.00;82.53
64687;BME280;51113;53.646;-113.674;2024-02-28T10:09:42;92857.44;;;-21.04;82.32
64687;BME280;51113;53.646;-113.674;2024-02-28T10:12:10;92857.13;;;-21.12;81.33
64687;BME280;51113;53.646;-113.674;2024-02-28T10:14:39;92858.88;;;-20.87;82.23
64687;BME280;51113;53.646;-113.674;2024-02-28T10:17:08;92853.38;;;-20.78;82.31
64687;BME280;51113;53.646;-113.674;2024-02-28T10:19:36;92849.03;;;-20.75;81.54
64687;BME280;51113;53.646;-113.674;2024-02-28T10:22:06;92835.34;;;-20.66;81.84
64687;BME280;51113;53.646;-113.674;2024-02-28T10:24:35;92824.00;;;-20.69;81.29
64687;BME280;51113;53.646;-113.674;2024-02-28T10:27:05;92831.69;;;-20.73;81.34
64687;BME280;51113;53.646;-113.674;2024-02-28T10:29:34;92824.78;;;-20.68;82.11
64687;BME280;51113;53.646;-113.674;2024-02-28T10:32:03;92824.28;;;-20.73;81.39
64687;BME280;51113;53.646;-113.674;2024-02-28T10:34:34;92822.81;;;-20.63;81.07
64687;BME280;51113;53.646;-113.674;2024-02-28T10:37:05;92830.22;;;-20.63;81.41
64687;BME280;51113;53.646;-113.674;2024-02-28T10:39:34;92819.66;;;-20.65;81.19
64687;BME280;51113;53.646;-113.674;2024-02-28T10:42:04;92811.47;;;-20.53;81.36
64687;BME280;51113;53.646;-113.674;2024-02-28T10:44:35;92781.69;;;-20.50;82.11
64687;BME280;51113;53.646;-113.674;2024-02-28T10:47:07;92788.78;;;-20.58;80.66
64687;BME280;51113;53.646;-113.674;2024-02-28T10:49:39;92783.28;;;-20.61;80.63
64687;BME280;51113;53.646;-113.674;2024-02-28T10:52:08;92772.72;;;-20.64;80.85
64687;BME280;51113;53.646;-113.674;2024-02-28T10:54:42;92779.31;;;-20.51;80.79
64687;BME280;51113;53.646;-113.674;2024-02-28T10:57:12;92772.91;;;-20.41;81.85
64687;BME280;51113;53.646;-113.674;2024-02-28T10:59:43;92769.44;;;-20.39;81.45
64687;BME280;51113;53.646;-113.674;2024-02-28T11:02:12;92759.44;;;-20.37;81.23
64687;BME280;51113;53.646;-113.674;2024-02-28T11:04:42;92754.09;;;-20.18;81.45
64687;BME280;51113;53.646;-113.674;2024-02-28T11:07:18;92743.75;;;-20.23;81.01
64687;BME280;51113;53.646;-113.674;2024-02-28T11:09:48;92753.19;;;-20.17;80.78
64687;BME280;51113;53.646;-113.674;2024-02-28T11:12:29;92760.59;;;-20.17;80.81
64687;BME280;51113;53.646;-113.674;2024-02-28T11:15:02;92754.00;;;-20.30;80.43
64687;BME280;51113;53.646;-113.674;2024-02-28T11:17:32;92768.13;;;-20.19;80.89
64687;BME280;51113;53.646;-113.674;2024-02-28T11:20:12;92765.34;;;-20.27;81.01
64687;BME280;51113;53.646;-113.674;2024-02-28T11:22:41;92771.22;;;-20.41;80.11
64687;BME280;51113;53.646;-113.674;2024-02-28T11:25:09;92748.13;;;-20.40;80.60
64687;BME280;51113;53.646;-113.674;2024-02-28T11:27:56;92744.84;;;-20.27;81.44
64687;BME280;51113;53.646;-113.674;2024-02-28T11:30:25;92745.22;;;-20.21;81.37
64687;BME280;51113;53.646;-113.674;2024-02-28T11:32:54;92735.56;;;-20.37;80.67
64687;BME280;51113;53.646;-113.674;2024-02-28T11:35:32;92720.22;;;-20.40;80.79
64687;BME280;51113;53.646;-113.674;2024-02-28T11:38:00;92721.63;;;-20.49;80.56
64687;BME280;51113;53.646;-113.674;2024-02-28T11:40:29;92726.34;;;-20.46;80.93
64687;BME280;51113;53.646;-113.674;2024-02-28T11:42:58;92721.22;;;-20.43;81.07
64687;BME280;51113;53.646;-113.674;2024-02-28T11:45:27;92739.16;;;-20.41;80.58
64687;BME280;51113;53.646;-113.674;2024-02-28T11:47:56;92744.69;;;-20.50;80.79
64687;BME280;51113;53.646;-113.674;2024-02-28T11:50:24;92761.56;;;-20.44;80.69
64687;BME280;51113;53.646;-113.674;2024-02-28T11:52:54;92776.38;;;-20.44;81.39
64687;BME280;51113;53.646;-113.674;2024-02-28T11:55:25;92769.50;;;-20.27;81.04
64687;BME280;51113;53.646;-113.674;2024-02-28T11:57:54;92751.56;;;-20.30;81.65
64687;BME280;51113;53.646;-113.674;2024-02-28T12:00:23;92752.53;;;-20.32;80.79
64687;BME280;51113;53.646;-113.674;2024-02-28T12:02:52;92747.91;;;-20.37;80.63
64687;BME280;51113;53.646;-113.674;2024-02-28T12:05:22;92730.78;;;-20.51;80.92
64687;BME280;51113;53.646;-113.674;2024-02-28T12:07:51;92732.66;;;-20.42;80.67
64687;BME280;51113;53.646;-113.674;2024-02-28T12:10:23;92732.31;;;-20.37;80.97
64687;BME280;51113;53.646;-113.674;2024-02-28T12:12:51;92727.03;;;-20.44;80.10
64687;BME280;51113;53.646;-113.674;2024-02-28T12:15:20;92737.78;;;-20.45;80.59
64687;BME280;51113;53.646;-113.674;2024-02-28T12:17:49;92741.53;;;-20.39;81.00
64687;BME280;51113;53.646;-113.674;2024-02-28T12:20:18;92733.06;;;-20.48;80.95
64687;BME280;51113;53.646;-113.674;2024-02-28T12:22:47;92737.69;;;-20.43;80.54
64687;BME280;51113;53.646;-113.674;2024-02-28T12:25:15;92731.47;;;-20.49;80.34
64687;BME280;51113;53.646;-113.674;2024-02-28T12:27:45;92735.41;;;-20.46;80.31
64687;BME280;51113;53.646;-113.674;2024-02-28T12:30:14;92729.22;;;-20.52;80.79